Time;durP1;ratioP1;P1;durP2;ratioP2;P2;SDS_P1;SDS_P2;PMS_P1;PMS_P2;Temp;Humidity;BMP_temperature;BMP_pressure;BME280_temperature;BME280_humidity;BME280_pressure;Samples;Min_cycle;Max_cycle;Signal;HPM_P1;HPM_P2
2022/01/21 00:00:25;;;;;;;19.35;3.38;;;2.10;99.90;;;;;;5086039;28;20063;-82
2022/01/21 00:02:51;;;;;;;23.58;3.88;;;2.10;99.90;;;;;;5076103;28;20064;-82
2022/01/21 00:05:18;;;;;;;11.80;3.10;;;2.10;99.90;;;;;;5053404;28;20036;-82
2022/01/21 00:07:44;;;;;;;23.05;3.63;;;2.20;99.90;;;;;;5070849;28;20028;-82
2022/01/21 00:10:10;;;;;;;27.98;4.43;;;2.10;99.90;;;;;;5083962;28;20027;-82
2022/01/21 00:12:36;;;;;;;25.63;3.97;;;2.10;99.90;;;;;;5066190;28;20032;-82
2022/01/21 00:15:07;;;;;;;26.98;3.90;;;2.20;99.90;;;;;;5069038;28;20040;-82
2022/01/21 00:17:33;;;;;;;20.05;3.80;;;2.10;99.90;;;;;;5072497;28;20043;-82
2022/01/21 00:30:56;;;;;;;20.60;3.35;;;1.90;99.90;;;;;;5068578;28;20085;-82
2022/01/21 00:33:21;;;;;;;27.15;3.40;;;2.00;99.90;;;;;;5086299;28;20032;-82
2022/01/21 00:35:47;;;;;;;25.10;3.80;;;2.00;99.90;;;;;;5057012;28;20036;-82
2022/01/21 00:38:14;;;;;;;19.65;3.70;;;2.00;99.90;;;;;;5051346;28;20043;-82
2022/01/21 00:40:40;;;;;;;20.73;3.88;;;2.00;99.90;;;;;;5079734;28;20089;-82
2022/01/21 00:43:29;;;;;;;30.20;3.78;;;2.00;99.90;;;;;;5070573;28;20040;-82
2022/01/21 00:45:54;;;;;;;23.65;3.83;;;2.10;99.90;;;;;;5054441;28;20032;-83
2022/01/21 00:48:20;;;;;;;23.00;3.63;;;2.10;99.90;;;;;;5056477;28;20375;-82
2022/01/21 00:50:47;;;;;;;26.08;3.83;;;2.10;99.90;;;;;;5075676;28;20397;-83
2022/01/21 00:53:13;;;;;;;27.50;3.80;;;2.00;99.90;;;;;;5088079;28;20035;-82
2022/01/21 00:55:39;;;;;;;24.50;4.15;;;2.10;99.90;;;;;;5082804;28;20035;-82
2022/01/21 00:58:05;;;;;;;22.80;3.63;;;2.00;99.90;;;;;;5051034;28;20040;-82
2022/01/21 01:00:31;;;;;;;19.88;3.35;;;2.00;99.90;;;;;;5063161;28;20036;-82
2022/01/21 01:02:57;;;;;;;20.38;3.63;;;2.00;99.90;;;;;;5051652;28;20068;-82
2022/01/21 01:05:23;;;;;;;20.83;3.38;;;2.00;99.90;;;;;;5054628;28;20604;-83
2022/01/21 01:07:49;;;;;;;17.02;3.17;;;2.00;99.90;;;;;;5067517;28;20056;-82
2022/01/21 01:10:35;;;;;;;20.88;2.70;;;2.10;99.90;;;;;;5074059;28;20501;-82
2022/01/21 01:19:55;;;;;;;25.58;3.20;;;2.10;99.90;;;;;;5086711;28;20105;-83
2022/01/21 01:21:29;;;;;;;21.67;3.17;;;2.10;99.90;;;;;;5065288;28;20036;-82
2022/01/21 01:29:11;;;;;;;18.65;3.15;;;2.20;99.90;;;;;;5073569;28;20062;-82
2022/01/21 01:31:37;;;;;;;24.15;3.40;;;2.30;99.90;;;;;;5067335;28;20036;-82
2022/01/21 01:34:04;;;;;;;20.15;3.80;;;2.20;99.90;;;;;;5071142;28;20024;-82
2022/01/21 01:36:30;;;;;;;24.65;3.92;;;2.10;99.90;;;;;;5055093;28;20067;-83
2022/01/21 01:41:42;;;;;;;19.35;3.78;;;2.10;99.90;;;;;;5070964;28;20120;-82
2022/01/21 01:49:37;;;;;;;22.77;3.90;;;2.00;99.90;;;;;;5075546;28;20086;-82
2022/01/21 01:52:12;;;;;;;27.73;5.10;;;1.90;99.90;;;;;;5072338;28;20029;-82
2022/01/21 01:54:46;;;;;;;20.33;3.72;;;1.90;99.90;;;;;;5071743;28;20036;-82
2022/01/21 01:57:11;;;;;;;22.65;3.75;;;1.90;99.90;;;;;;5081278;28;20032;-82
2022/01/21 01:59:37;;;;;;;31.13;4.38;;;1.80;99.90;;;;;;5074041;28;20035;-82
2022/01/21 02:02:03;;;;;;;21.83;3.80;;;1.80;99.90;;;;;;5060565;28;20036;-82
2022/01/21 02:04:29;;;;;;;31.63;4.50;;;1.80;99.90;;;;;;5090885;28;20046;-82
2022/01/21 02:06:55;;;;;;;26.45;4.47;;;1.80;99.90;;;;;;5072074;28;20040;-82
2022/01/21 02:09:22;;;;;;;28.08;4.70;;;1.80;99.90;;;;;;5053421;28;20040;-82
2022/01/21 02:11:48;;;;;;;34.47;4.68;;;1.80;99.90;;;;;;5071654;28;20040;-83
2022/01/21 02:14:21;;;;;;;31.00;4.63;;;1.80;99.90;;;;;;5092424;28;20054;-82
2022/01/21 02:17:12;;;;;;;29.35;4.45;;;1.70;99.90;;;;;;5073496;28;20051;-82
2022/01/21 02:22:29;;;;;;;36.10;4.95;;;1.80;99.90;;;;;;5088291;28;20043;-82
2022/01/21 02:24:59;;;;;;;28.83;5.05;;;1.70;99.90;;;;;;5070089;28;20060;-82
2022/01/21 02:27:25;;;;;;;23.02;3.92;;;1.70;99.90;;;;;;5087754;28;20028;-82
2022/01/21 02:29:55;;;;;;;30.38;4.43;;;1.70;99.90;;;;;;5058769;28;20036;-82
2022/01/21 02:32:22;;;;;;;20.30;4.30;;;1.70;99.90;;;;;;5073994;28;20032;-82
2022/01/21 02:34:48;;;;;;;21.42;4.25;;;1.70;99.90;;;;;;5076757;28;20036;-82
2022/01/21 02:37:22;;;;;;;26.60;4.50;;;1.70;99.90;;;;;;5071296;28;20470;-82
2022/01/21 02:39:48;;;;;;;27.50;4.10;;;1.60;99.90;;;;;;5076019;28;20032;-82
2022/01/21 02:42:14;;;;;;;24.80;3.85;;;1.60;99.90;;;;;;5073086;28;20481;-82
2022/01/21 02:44:40;;;;;;;29.55;3.85;;;1.60;99.90;;;;;;5084776;28;20039;-82
2022/01/21 02:47:08;;;;;;;28.05;4.47;;;1.60;99.90;;;;;;5090102;28;20036;-83
2022/01/21 02:49:34;;;;;;;20.55;3.72;;;1.70;99.90;;;;;;5062861;28;20480;-82
2022/01/21 02:52:01;;;;;;;24.17;4.20;;;1.70;99.90;;;;;;5069939;28;20465;-82
2022/01/21 02:54:31;;;;;;;29.15;4.65;;;1.70;99.90;;;;;;5080356;28;20032;-82
2022/01/21 02:57:01;;;;;;;25.00;3.97;;;1.60;99.90;;;;;;5091042;28;20084;-82
2022/01/21 02:59:27;;;;;;;30.70;5.38;;;1.60;99.90;;;;;;5057180;28;20045;-82
2022/01/21 03:01:53;;;;;;;35.13;4.82;;;1.60;99.90;;;;;;5066002;28;20122;-82
2022/01/21 03:06:57;;;;;;;25.10;3.67;;;1.50;99.90;;;;;;5070801;28;20037;-82
2022/01/21 03:09:22;;;;;;;19.83;4.10;;;1.50;99.90;;;;;;5054219;28;20032;-82
2022/01/21 03:11:49;;;;;;;24.45;3.72;;;1.50;99.90;;;;;;5071691;28;20122;-82
2022/01/21 03:14:14;;;;;;;27.42;3.92;;;1.50;99.90;;;;;;5089454;28;20054;-82
2022/01/21 03:16:40;;;;;;;23.85;3.83;;;1.50;99.90;;;;;;5073250;28;20029;-82
2022/01/21 03:19:06;;;;;;;25.67;3.53;;;1.50;99.90;;;;;;5075089;28;20035;-82
2022/01/21 03:21:31;;;;;;;26.02;4.00;;;1.50;99.90;;;;;;5052578;28;20512;-82
2022/01/21 03:23:57;;;;;;;29.88;4.13;;;1.40;99.90;;;;;;5075953;28;20033;-82
2022/01/21 03:26:27;;;;;;;24.65;4.68;;;1.40;99.90;;;;;;5071966;28;20071;-82
2022/01/21 03:28:55;;;;;;;29.05;4.03;;;1.40;99.90;;;;;;5062122;28;20033;-82
2022/01/21 03:31:21;;;;;;;20.88;3.45;;;1.30;99.90;;;;;;5068792;28;20451;-82
2022/01/21 03:33:47;;;;;;;25.70;3.78;;;1.40;99.90;;;;;;5077114;28;20036;-82
2022/01/21 03:36:13;;;;;;;23.70;3.95;;;1.30;99.90;;;;;;5053862;28;20087;-82
2022/01/21 03:38:40;;;;;;;34.50;4.30;;;1.30;99.90;;;;;;5061987;28;20548;-82
2022/01/21 03:41:06;;;;;;;19.95;3.65;;;1.30;99.90;;;;;;5089760;28;20036;-82
2022/01/21 03:43:32;;;;;;;30.63;4.03;;;1.30;99.90;;;;;;5085595;28;20036;-82
2022/01/21 03:45:58;;;;;;;26.60;3.90;;;1.30;99.90;;;;;;5051406;28;20071;-82
2022/01/21 03:48:25;;;;;;;26.70;3.67;;;1.30;99.90;;;;;;5069268;28;20042;-82
2022/01/21 03:50:51;;;;;;;22.90;3.47;;;1.40;99.90;;;;;;5068992;28;20036;-82
2022/01/21 03:53:17;;;;;;;21.42;3.63;;;1.50;99.90;;;;;;5075154;28;20035;-82
2022/01/21 03:55:43;;;;;;;17.92;3.20;;;1.50;99.90;;;;;;5068432;28;20028;-82
2022/01/21 03:58:11;;;;;;;20.60;3.47;;;1.60;99.90;;;;;;5078644;28;20032;-82
2022/01/21 04:00:49;;;;;;;25.65;3.97;;;1.60;99.90;;;;;;5063549;28;20028;-82
2022/01/21 04:03:15;;;;;;;16.88;3.13;;;1.60;99.90;;;;;;5068617;28;20032;-82
2022/01/21 04:05:41;;;;;;;23.70;3.05;;;1.60;99.90;;;;;;5069965;28;20480;-82
2022/01/21 04:08:08;;;;;;;20.13;3.42;;;1.50;99.90;;;;;;5075025;28;20028;-82
2022/01/21 04:10:35;;;;;;;22.55;4.07;;;1.50;99.90;;;;;;5071473;28;20393;-82
2022/01/21 04:13:03;;;;;;;18.88;3.63;;;1.50;99.90;;;;;;5079631;28;20039;-82
2022/01/21 04:15:29;;;;;;;29.38;4.28;;;1.50;99.90;;;;;;5068349;28;20440;-82
2022/01/21 04:17:55;;;;;;;15.07;2.60;;;1.50;99.90;;;;;;5071440;28;20036;-82
2022/01/21 04:20:20;;;;;;;22.33;3.28;;;1.60;99.90;;;;;;5051309;28;20025;-82
2022/01/21 04:22:46;;;;;;;17.60;3.45;;;1.50;99.90;;;;;;5053323;28;20028;-82
2022/01/21 04:25:12;;;;;;;21.75;3.10;;;1.60;99.90;;;;;;5051025;28;20120;-82
2022/01/21 04:27:39;;;;;;;29.10;3.03;;;1.60;99.90;;;;;;5083118;28;20027;-82
2022/01/21 04:30:07;;;;;;;29.05;3.40;;;1.60;99.90;;;;;;5067887;28;20016;-82
2022/01/21 04:32:33;;;;;;;18.92;2.88;;;1.50;99.90;;;;;;5083672;28;20039;-82
2022/01/21 04:34:58;;;;;;;19.25;3.17;;;1.50;99.90;;;;;;5089610;28;20028;-82
2022/01/21 04:37:24;;;;;;;23.33;3.13;;;1.50;99.90;;;;;;5066163;28;20036;-82
2022/01/21 04:40:04;;;;;;;17.30;2.88;;;1.50;99.90;;;;;;5071338;28;20036;-82
2022/01/21 04:48:11;;;;;;;20.92;3.08;;;1.40;99.90;;;;;;5065172;28;20552;-82
2022/01/21 04:50:51;;;;;;;21.63;3.50;;;1.40;99.90;;;;;;5062151;28;20156;-82
2022/01/21 04:53:17;;;;;;;22.65;3.72;;;1.50;99.90;;;;;;5081595;28;20117;-82
2022/01/21 04:55:42;;;;;;;23.52;4.15;;;1.60;99.90;;;;;;5048072;28;20710;-82
2022/01/21 04:58:08;;;;;;;15.65;2.92;;;1.50;99.90;;;;;;5070394;28;20093;-82
2022/01/21 05:00:34;;;;;;;20.10;3.33;;;1.50;99.90;;;;;;5063457;28;20146;-82
2022/01/21 05:03:00;;;;;;;26.10;3.67;;;1.50;99.90;;;;;;5088995;28;20029;-82
2022/01/21 05:05:26;;;;;;;19.50;3.53;;;1.40;99.90;;;;;;5071328;28;20029;-82
2022/01/21 05:07:53;;;;;;;19.67;3.40;;;1.50;99.90;;;;;;5067606;28;20040;-82
2022/01/21 05:10:18;;;;;;;22.15;3.83;;;1.40;99.90;;;;;;5082531;28;20051;-82
2022/01/21 05:12:44;;;;;;;16.83;3.42;;;1.30;99.90;;;;;;5053556;28;20064;-82
2022/01/21 05:17:43;;;;;;;21.67;3.40;;;1.30;99.90;;;;;;5085306;28;20031;-82
2022/01/21 05:20:10;;;;;;;22.63;3.90;;;1.30;99.90;;;;;;5075564;28;20025;-82
2022/01/21 05:22:35;;;;;;;20.38;3.55;;;1.30;99.90;;;;;;5065229;28;20056;-82
2022/01/21 05:25:01;;;;;;;24.08;3.83;;;1.30;99.90;;;;;;5054462;28;20080;-82
2022/01/21 05:27:27;;;;;;;23.23;4.07;;;1.30;99.90;;;;;;5085719;28;20530;-82
2022/01/21 05:29:52;;;;;;;23.42;4.10;;;1.30;99.90;;;;;;5074499;28;20032;-82
2022/01/21 05:32:18;;;;;;;19.13;3.15;;;1.30;99.90;;;;;;5087622;28;20390;-82
2022/01/21 05:34:44;;;;;;;28.33;4.18;;;1.30;99.90;;;;;;5057393;28;20060;-81
2022/01/21 05:37:09;;;;;;;28.17;4.03;;;1.20;99.90;;;;;;5072664;28;20021;-82
2022/01/21 05:39:35;;;;;;;27.80;4.20;;;1.20;99.90;;;;;;5071377;28;20115;-81
2022/01/21 05:42:03;;;;;;;20.00;4.18;;;1.20;99.90;;;;;;5080653;28;20039;-81
2022/01/21 05:47:13;;;;;;;21.08;3.40;;;1.10;99.90;;;;;;5079585;28;20108;-81
2022/01/21 05:49:40;;;;;;;24.52;4.05;;;1.10;99.90;;;;;;5076237;28;20040;-82
2022/01/21 05:52:10;;;;;;;28.00;3.88;;;1.10;99.90;;;;;;5054616;28;20122;-81
2022/01/21 05:54:36;;;;;;;17.58;3.92;;;1.10;99.90;;;;;;5076380;28;20040;-81
2022/01/21 05:57:05;;;;;;;16.30;3.45;;;1.10;99.90;;;;;;5072729;28;20471;-82
2022/01/21 05:59:32;;;;;;;19.52;3.80;;;1.20;99.90;;;;;;5073312;28;20039;-82
2022/01/21 06:01:57;;;;;;;15.43;3.58;;;1.20;99.90;;;;;;5071968;28;20047;-81
2022/01/21 06:04:23;;;;;;;22.75;4.28;;;1.20;99.90;;;;;;5073816;28;20103;-81
2022/01/21 06:06:49;;;;;;;19.20;3.83;;;1.20;99.90;;;;;;5073636;28;20497;-81
2022/01/21 06:09:14;;;;;;;20.48;3.90;;;1.20;99.90;;;;;;5089033;28;20156;-82
2022/01/21 06:11:43;;;;;;;20.83;4.18;;;1.20;99.90;;;;;;5081054;28;20090;-82
2022/01/21 06:14:09;;;;;;;28.40;4.97;;;1.10;99.90;;;;;;5062564;28;20025;-81
2022/01/21 06:16:35;;;;;;;22.40;4.50;;;1.10;99.90;;;;;;5055439;28;20039;-80
2022/01/21 06:19:01;;;;;;;29.85;4.40;;;1.20;99.90;;;;;;5056438;28;20429;-80
2022/01/21 06:21:26;;;;;;;23.33;4.55;;;1.20;99.90;;;;;;5087943;28;20036;-80
2022/01/21 06:23:52;;;;;;;21.38;4.22;;;1.20;99.90;;;;;;5058776;28;20128;-80
2022/01/21 06:26:18;;;;;;;19.20;4.07;;;1.20;99.90;;;;;;5062949;28;20051;-80
2022/01/21 06:28:44;;;;;;;18.25;3.88;;;1.10;99.90;;;;;;5053057;28;20044;-80
2022/01/21 06:31:09;;;;;;;25.42;4.82;;;1.10;99.90;;;;;;5068349;28;20044;-80
2022/01/21 06:33:35;;;;;;;26.83;4.88;;;1.10;99.90;;;;;;5049215;28;20043;-80
2022/01/21 06:36:01;;;;;;;12.82;3.83;;;1.10;99.90;;;;;;5062714;28;20458;-81
2022/01/21 06:38:27;;;;;;;16.65;3.80;;;1.00;99.90;;;;;;5068981;28;20468;-81
2022/01/21 06:40:53;;;;;;;24.92;4.45;;;1.00;99.90;;;;;;5060326;28;20473;-81
2022/01/21 06:43:19;;;;;;;19.52;4.80;;;1.00;99.90;;;;;;5052578;28;20051;-80
2022/01/21 06:45:45;;;;;;;23.25;4.43;;;1.10;99.90;;;;;;5056088;28;20032;-80
2022/01/21 06:48:11;;;;;;;25.67;4.97;;;1.00;99.90;;;;;;5090567;28;20047;-80
2022/01/21 06:50:40;;;;;;;20.00;5.60;;;1.00;99.90;;;;;;5069644;28;20483;-80
2022/01/21 06:53:06;;;;;;;13.90;3.75;;;1.00;99.90;;;;;;5070254;28;20048;-80
2022/01/21 06:55:32;;;;;;;22.13;5.13;;;1.00;99.90;;;;;;5082771;28;20032;-80
2022/01/21 06:57:57;;;;;;;21.65;5.70;;;1.00;99.90;;;;;;5053047;28;20611;-80
2022/01/21 07:00:24;;;;;;;28.95;5.57;;;1.00;99.90;;;;;;5088200;28;20023;-80
2022/01/21 07:02:51;;;;;;;16.15;5.03;;;1.00;99.90;;;;;;5089729;28;20403;-80
2022/01/21 07:05:17;;;;;;;23.77;5.72;;;1.00;99.90;;;;;;5074140;28;20056;-80
2022/01/21 07:07:43;;;;;;;27.77;5.50;;;1.00;99.90;;;;;;5052819;28;20033;-80
2022/01/21 07:10:12;;;;;;;21.58;5.30;;;1.00;99.90;;;;;;5069184;28;20393;-80
2022/01/21 07:12:38;;;;;;;21.33;5.30;;;1.00;99.90;;;;;;5052800;28;20036;-80
2022/01/21 07:15:08;;;;;;;25.77;4.93;;;1.10;99.90;;;;;;5079857;28;20024;-80
2022/01/21 07:17:34;;;;;;;20.15;5.30;;;1.10;99.90;;;;;;5072359;28;20035;-80
2022/01/21 07:20:01;;;;;;;19.45;5.00;;;1.10;99.90;;;;;;5089366;28;20161;-80
2022/01/21 07:22:27;;;;;;;20.05;5.00;;;1.10;99.90;;;;;;5089570;28;20034;-80
2022/01/21 07:24:53;;;;;;;29.05;5.65;;;1.10;99.90;;;;;;5072093;28;20488;-80
2022/01/21 07:27:18;;;;;;;22.30;5.40;;;1.20;99.90;;;;;;5082016;28;20443;-80
2022/01/21 07:29:44;;;;;;;26.67;6.13;;;1.20;99.90;;;;;;5089233;28;20123;-80
2022/01/21 07:32:10;;;;;;;17.75;5.63;;;1.20;99.90;;;;;;5085504;28;20079;-80
2022/01/21 07:34:36;;;;;;;26.85;5.78;;;1.30;99.90;;;;;;5054790;28;20035;-80
2022/01/21 07:37:02;;;;;;;20.27;5.40;;;1.30;99.90;;;;;;5058455;28;20114;-80
2022/01/21 07:39:28;;;;;;;22.85;6.50;;;1.30;99.90;;;;;;5072506;28;20016;-80
2022/01/21 07:41:54;;;;;;;24.45;5.95;;;1.20;99.90;;;;;;5070696;28;20115;-81
2022/01/21 07:44:20;;;;;;;19.73;6.28;;;1.20;99.90;;;;;;5086968;28;20111;-81
2022/01/21 07:46:46;;;;;;;24.30;6.82;;;1.20;99.90;;;;;;5083521;28;20036;-81
2022/01/21 07:49:15;;;;;;;24.65;7.55;;;1.20;99.90;;;;;;5047082;28;20086;-81
2022/01/21 07:51:41;;;;;;;24.42;10.32;;;1.20;99.90;;;;;;5068411;28;20393;-80
2022/01/21 07:54:07;;;;;;;28.73;11.23;;;1.20;99.90;;;;;;5068601;28;20057;-81
2022/01/21 07:56:34;;;;;;;33.90;10.15;;;1.20;99.90;;;;;;5082333;28;20060;-81
2022/01/21 07:59:04;;;;;;;30.40;9.88;;;1.20;99.90;;;;;;5087954;28;20051;-82
2022/01/21 08:01:30;;;;;;;32.67;10.18;;;1.20;99.90;;;;;;5088535;28;20128;-80
2022/01/21 08:03:55;;;;;;;43.85;9.60;;;1.20;99.90;;;;;;5064969;28;20119;-82
2022/01/21 08:06:21;;;;;;;28.25;8.93;;;1.30;99.90;;;;;;5063504;28;20477;-82
2022/01/21 08:08:47;;;;;;;27.90;9.38;;;1.30;99.90;;;;;;5088475;28;20036;-82
2022/01/21 08:11:13;;;;;;;26.15;8.88;;;1.30;99.90;;;;;;5071598;28;20036;-82
2022/01/21 08:13:38;;;;;;;29.27;8.93;;;1.30;99.90;;;;;;5052260;28;20499;-82
2022/01/21 08:16:04;;;;;;;26.45;9.02;;;1.30;99.90;;;;;;5068178;28;20382;-82
2022/01/21 08:18:30;;;;;;;33.88;10.70;;;1.30;99.90;;;;;;5049149;28;20064;-82
2022/01/21 08:20:56;;;;;;;28.02;8.75;;;1.40;99.90;;;;;;5064915;28;20078;-81
2022/01/21 08:23:22;;;;;;;22.60;9.30;;;1.40;99.90;;;;;;5086266;28;20125;-82
2022/01/21 08:25:48;;;;;;;35.20;9.15;;;1.40;99.90;;;;;;5065660;28;20540;-82
2022/01/21 08:28:14;;;;;;;30.15;9.82;;;1.50;99.90;;;;;;5057505;28;20136;-82
2022/01/21 08:30:40;;;;;;;28.17;8.93;;;1.50;99.90;;;;;;5063690;28;20115;-82
2022/01/21 08:33:06;;;;;;;36.33;11.50;;;1.50;99.90;;;;;;5067916;28;20078;-82
2022/01/21 08:35:33;;;;;;;28.35;10.32;;;1.60;99.90;;;;;;5057709;28;20032;-82
2022/01/21 08:37:59;;;;;;;32.13;12.02;;;1.60;99.90;;;;;;5059267;28;20067;-82
2022/01/21 08:40:25;;;;;;;42.60;12.30;;;1.70;99.90;;;;;;5051234;28;20048;-82
2022/01/21 08:42:51;;;;;;;28.00;11.05;;;1.70;99.90;;;;;;5067952;28;20564;-82
2022/01/21 08:45:17;;;;;;;33.92;10.57;;;1.80;99.90;;;;;;5071157;28;20530;-82
2022/01/21 08:47:43;;;;;;;26.40;10.82;;;1.90;99.90;;;;;;5050754;28;20122;-82
2022/01/21 08:50:11;;;;;;;28.85;9.80;;;1.90;99.90;;;;;;5056528;28;20032;-82
2022/01/21 08:52:38;;;;;;;30.02;11.23;;;2.00;99.90;;;;;;5050265;28;20506;-82
2022/01/21 08:55:09;;;;;;;28.10;10.27;;;2.00;99.90;;;;;;5073691;28;20059;-82
2022/01/21 08:57:39;;;;;;;28.70;10.30;;;2.10;99.90;;;;;;5089203;28;20020;-82
2022/01/21 09:00:06;;;;;;;;;;;2.10;99.90;;;;;;5087789;28;20036;-83
2022/01/21 09:02:31;;;;;;;22.95;10.10;;;2.20;99.90;;;;;;5087721;28;19904;-83
2022/01/21 09:04:57;;;;;;;26.40;10.25;;;2.30;99.90;;;;;;5067130;28;20618;-83
2022/01/21 09:07:23;;;;;;;24.80;10.30;;;2.40;99.90;;;;;;5050268;28;20036;-83
2022/01/21 09:09:49;;;;;;;25.75;10.07;;;2.40;99.90;;;;;;5051229;28;20131;-83
2022/01/21 09:12:14;;;;;;;25.75;9.85;;;2.40;99.90;;;;;;5068897;28;20036;-83
2022/01/21 09:14:40;;;;;;;20.88;8.70;;;2.50;99.90;;;;;;5050870;28;20030;-83
2022/01/21 09:17:05;;;;;;;25.10;8.77;;;2.50;99.90;;;;;;5087610;28;20115;-83
2022/01/21 09:19:32;;;;;;;15.35;8.82;;;2.50;99.90;;;;;;5070674;28;20039;-83
2022/01/21 09:22:02;;;;;;;21.45;9.05;;;2.50;99.90;;;;;;5086356;28;20481;-83
2022/01/21 09:24:29;;;;;;;28.48;10.80;;;2.50;99.90;;;;;;5059631;28;20033;-82
2022/01/21 09:26:54;;;;;;;17.35;9.73;;;2.60;99.90;;;;;;5056434;28;20048;-83
2022/01/21 09:29:20;;;;;;;23.42;11.45;;;2.60;99.90;;;;;;5067392;28;20032;-82
2022/01/21 09:31:46;;;;;;;28.50;11.30;;;2.60;99.90;;;;;;5057934;28;20044;-83
2022/01/21 09:34:11;;;;;;;28.67;10.30;;;2.70;99.90;;;;;;5057967;28;20364;-81
2022/01/21 09:36:37;;;;;;;23.23;10.25;;;2.60;99.90;;;;;;5086577;28;20500;-81
2022/01/21 09:39:05;;;;;;;18.92;9.20;;;2.70;99.90;;;;;;5082224;28;20108;-80
2022/01/21 09:41:31;;;;;;;23.58;9.77;;;2.70;99.90;;;;;;5050115;28;20105;-80
2022/01/21 09:43:58;;;;;;;22.13;8.93;;;2.80;99.90;;;;;;5050501;28;20378;-80
2022/01/21 09:46:33;;;;;;;23.80;10.02;;;2.80;99.90;;;;;;5077179;28;20035;-81
2022/01/21 09:49:09;;;;;;;25.90;9.88;;;2.90;99.90;;;;;;5085680;28;20119;-81
2022/01/21 09:51:36;;;;;;;26.08;9.70;;;2.90;99.90;;;;;;5071667;28;20058;-81
2022/01/21 09:54:06;;;;;;;26.20;10.52;;;3.10;99.90;;;;;;5049628;28;20033;-82
2022/01/21 09:56:34;;;;;;;22.33;8.82;;;3.10;99.90;;;;;;5047019;28;20037;-81
2022/01/21 09:59:00;;;;;;;20.30;8.93;;;3.10;99.90;;;;;;5063668;28;20055;-81
2022/01/21 10:01:26;;;;;;;23.52;9.18;;;3.20;99.90;;;;;;5049904;28;20033;-81
2022/01/21 10:03:53;;;;;;;19.40;9.40;;;3.20;99.90;;;;;;5066968;28;20086;-81
2022/01/21 10:06:24;;;;;;;23.17;9.13;;;3.20;99.90;;;;;;5066963;28;20035;-81
2022/01/21 10:08:54;;;;;;;21.85;8.77;;;3.20;99.90;;;;;;5076041;28;20443;-87
2022/01/21 10:11:21;;;;;;;22.17;8.68;;;3.30;99.90;;;;;;5072854;28;20032;-81
2022/01/21 10:13:51;;;;;;;20.60;8.27;;;3.50;99.90;;;;;;5078418;28;20024;-81
2022/01/21 10:16:17;;;;;;;18.58;9.45;;;3.60;99.90;;;;;;5057432;28;20044;-81
2022/01/21 10:19:07;;;;;;;22.88;9.93;;;3.60;99.90;;;;;;5070147;28;20037;-81
2022/01/21 10:21:36;;;;;;;18.13;10.07;;;3.70;99.90;;;;;;5082702;28;20034;-81
2022/01/21 10:24:11;;;;;;;22.08;9.70;;;3.80;99.90;;;;;;5069954;28;20028;-80
2022/01/21 10:26:57;;;;;;;21.23;10.70;;;3.80;99.90;;;;;;5072041;28;20094;-81
2022/01/21 10:29:23;;;;;;;20.25;9.20;;;4.00;99.90;;;;;;5066752;28;20027;-81
2022/01/21 10:32:00;;;;;;;24.45;8.20;;;4.00;99.90;;;;;;5053444;28;20085;-80
2022/01/21 10:34:34;;;;;;;27.27;8.32;;;4.10;99.90;;;;;;5069215;28;20021;-80
2022/01/21 10:37:05;;;;;;;22.85;8.07;;;4.10;99.90;;;;;;5070202;28;20035;-80
2022/01/21 10:39:32;;;;;;;17.00;7.43;;;4.20;99.90;;;;;;5070057;28;20491;-80
2022/01/21 10:42:00;;;;;;;17.98;8.05;;;4.20;99.90;;;;;;5069429;28;20028;-80
2022/01/21 10:44:30;;;;;;;26.45;8.63;;;4.20;99.90;;;;;;5070021;28;20067;-81
2022/01/21 10:47:06;;;;;;;;;;;4.20;99.90;;;;;;5070344;28;20035;-80
2022/01/21 10:49:32;;;;;;;15.48;7.90;;;4.30;99.90;;;;;;5079430;28;19919;-80
2022/01/21 10:51:58;;;;;;;18.52;9.32;;;4.30;99.90;;;;;;5089585;28;20098;-80
2022/01/21 10:54:26;;;;;;;17.38;8.07;;;4.40;99.90;;;;;;5052454;28;20058;-80
2022/01/21 10:57:19;;;;;;;21.97;8.47;;;4.40;99.90;;;;;;5071515;28;20227;-85
2022/01/21 10:59:55;;;;;;;21.83;7.63;;;4.40;99.90;;;;;;5054099;28;20279;-80
2022/01/21 11:02:48;;;;;;;19.40;7.30;;;4.50;99.90;;;;;;5072409;28;20026;-81
2022/01/21 11:05:38;;;;;;;20.33;7.15;;;4.50;99.90;;;;;;5077481;28;20140;-82
2022/01/21 11:08:08;;;;;;;14.32;6.60;;;4.60;99.90;;;;;;5049526;28;20032;-81
2022/01/21 11:10:34;;;;;;;24.55;7.35;;;4.70;99.90;;;;;;5043675;28;20028;-81
2022/01/21 11:13:23;;;;;;;14.75;7.00;;;4.70;99.90;;;;;;5072095;28;20098;-81
2022/01/21 11:15:55;;;;;;;17.83;5.60;;;4.90;99.90;;;;;;5060830;28;20024;-81
2022/01/21 11:18:22;;;;;;;21.23;5.80;;;5.20;99.90;;;;;;5085070;28;20035;-81
2022/01/21 11:20:59;;;;;;;14.15;4.85;;;5.30;99.90;;;;;;5070556;28;20040;-80
2022/01/21 11:23:27;;;;;;;14.90;4.38;;;5.50;99.90;;;;;;5070148;28;20043;-80
2022/01/21 11:26:00;;;;;;;15.85;4.32;;;5.60;99.90;;;;;;5056291;28;20045;-81
2022/01/21 11:28:50;;;;;;;13.50;4.30;;;5.70;99.90;;;;;;5070133;28;20456;-81
2022/01/21 11:31:21;;;;;;;13.15;4.03;;;5.70;99.90;;;;;;5081189;28;20393;-81
2022/01/21 11:33:47;;;;;;;12.15;4.63;;;5.70;99.90;;;;;;5070160;28;20104;-81
2022/01/21 11:36:13;;;;;;;15.77;4.50;;;5.80;99.90;;;;;;5056935;28;20139;-81
2022/01/21 11:38:43;;;;;;;16.52;4.03;;;5.80;99.90;;;;;;5051911;28;20080;-81
2022/01/21 11:41:11;;;;;;;13.48;3.75;;;5.90;99.90;;;;;;5069496;28;20032;-81
2022/01/21 11:43:39;;;;;;;17.17;3.92;;;5.90;99.90;;;;;;5071355;28;20064;-81
2022/01/21 11:48:51;;;;;;;14.35;3.58;;;6.20;99.90;;;;;;5060364;28;20374;-84
2022/01/21 11:51:19;;;;;;;12.48;3.20;;;6.30;99.90;;;;;;5078585;28;20028;-81
2022/01/21 11:54:07;;;;;;;16.17;3.57;;;6.50;99.90;;;;;;5085987;28;20030;-81
2022/01/21 11:56:55;;;;;;;15.65;3.95;;;6.60;99.90;;;;;;5085889;28;20423;-81
2022/01/21 12:02:21;;;;;;;19.23;3.80;;;6.80;99.90;;;;;;5081301;28;20418;-79
2022/01/21 12:05:09;;;;;;;18.33;3.30;;;7.00;99.90;;;;;;5072626;28;20028;-79
2022/01/21 12:07:55;;;;;;;19.77;3.88;;;7.10;99.90;;;;;;5074468;28;20036;-79
2022/01/21 12:10:23;;;;;;;19.63;3.35;;;7.20;99.90;;;;;;5069000;28;20085;-79
2022/01/21 12:12:57;;;;;;;20.27;3.38;;;7.00;99.90;;;;;;5069799;28;20035;-79
2022/01/21 12:15:31;;;;;;;12.18;2.92;;;7.00;99.90;;;;;;5072640;28;20025;-81
2022/01/21 12:18:20;;;;;;;22.50;3.30;;;6.90;99.90;;;;;;5068825;28;20473;-81
2022/01/21 12:20:46;;;;;;;16.33;2.67;;;6.80;99.90;;;;;;5073077;28;20362;-81
2022/01/21 12:23:15;;;;;;;14.57;2.83;;;6.80;99.90;;;;;;5073359;28;20519;-81
2022/01/21 12:26:00;;;;;;;10.82;2.42;;;6.80;99.90;;;;;;5078161;28;20500;-81
2022/01/21 12:28:25;;;;;;;15.98;2.42;;;6.90;99.90;;;;;;5067694;28;20028;-81
2022/01/21 12:30:54;;;;;;;13.93;2.30;;;6.90;99.90;;;;;;5068414;28;20155;-81
2022/01/21 12:33:20;;;;;;;15.10;2.65;;;7.00;99.90;;;;;;5080919;28;20024;-81
2022/01/21 12:35:47;;;;;;;18.83;2.25;;;7.20;99.90;;;;;;5071012;28;20055;-81
2022/01/21 12:40:58;;;;;;;20.33;2.65;;;7.40;99.90;;;;;;5076773;28;20065;-81
2022/01/21 12:43:46;;;;;;;13.23;1.83;;;7.40;99.90;;;;;;5078372;28;20024;-81
2022/01/21 12:46:16;;;;;;;19.58;1.83;;;7.50;99.90;;;;;;5086401;28;20028;-81
2022/01/21 12:48:47;;;;;;;16.00;2.55;;;7.40;99.90;;;;;;5080497;28;20058;-81
2022/01/21 12:51:17;;;;;;;12.43;2.08;;;7.30;99.90;;;;;;5088003;28;20028;-81
2022/01/21 12:56:51;;;;;;;20.15;2.40;;;7.10;99.90;;;;;;5070526;28;20061;-81
2022/01/21 12:59:19;;;;;;;21.58;2.60;;;7.10;99.90;;;;;;5082085;28;20028;-80
2022/01/21 13:01:46;;;;;;;22.73;2.65;;;7.10;99.90;;;;;;5069312;28;20387;-79
2022/01/21 13:04:34;;;;;;;20.50;2.60;;;7.10;99.90;;;;;;5075532;28;20037;-79
2022/01/21 13:07:12;;;;;;;16.35;2.60;;;7.10;99.90;;;;;;5074701;28;20081;-79
2022/01/21 13:09:40;;;;;;;13.50;2.50;;;7.10;99.90;;;;;;5075774;28;20040;-79
2022/01/21 13:12:11;;;;;;;14.27;3.17;;;7.00;99.90;;;;;;5070236;28;20036;-80
2022/01/21 13:14:43;;;;;;;18.92;3.55;;;7.10;99.90;;;;;;5071514;28;20774;-79
2022/01/21 13:17:14;;;;;;;15.82;3.88;;;7.00;99.90;;;;;;5081673;28;20425;-83
2022/01/21 13:19:52;;;;;;;22.10;3.63;;;6.90;99.90;;;;;;5079902;28;20028;-80
2022/01/21 13:22:25;;;;;;;16.58;3.60;;;7.00;99.90;;;;;;5082559;28;20536;-80
2022/01/21 13:25:03;;;;;;;21.00;3.60;;;6.90;99.90;;;;;;5074908;28;20075;-78
2022/01/21 13:27:29;;;;;;;20.35;4.22;;;6.80;99.90;;;;;;5074142;28;20078;-77
2022/01/21 13:30:00;;;;;;;21.67;3.78;;;6.70;99.90;;;;;;5085319;28;20036;-77
2022/01/21 13:32:26;;;;;;;24.17;4.72;;;6.60;99.90;;;;;;5060424;28;20033;-77
2022/01/21 13:34:51;;;;;;;17.65;3.78;;;6.50;99.90;;;;;;5069932;28;20029;-77
2022/01/21 13:37:18;;;;;;;17.15;3.65;;;6.50;99.90;;;;;;5070926;28;20032;-77
2022/01/21 13:39:47;;;;;;;19.48;4.05;;;6.50;99.90;;;;;;5054031;28;20488;-77
2022/01/21 13:42:21;;;;;;;17.07;3.43;;;6.50;99.90;;;;;;5069947;28;20077;-77
2022/01/21 13:44:52;;;;;;;15.27;3.38;;;6.50;99.90;;;;;;5072596;28;20271;-77
2022/01/21 13:47:23;;;;;;;24.90;3.70;;;6.40;99.90;;;;;;5072136;28;20032;-77
2022/01/21 13:49:49;;;;;;;17.27;3.78;;;6.50;99.90;;;;;;5074110;28;20075;-77